Time;durP1;ratioP1;P1;durP2;ratioP2;P2;SDS_P1;SDS_P2;PMS_P1;PMS_P2;Temp;Humidity;BMP_temperature;BMP_pressure;BME280_temperature;BME280_humidity;BME280_pressure;Samples;Min_cycle;Max_cycle;Signal;HPM_P1;HPM_P2
2021/08/11 00:01:58;;;;;;;45.95;5.13;;;;;;;;;;5076386;28;20038;-75
2021/08/11 00:04:23;;;;;;;14.98;5.40;;;;;;;;;;5077808;28;20047;-75
2021/08/11 00:06:49;;;;;;;5.30;4.80;;;;;;;;;;5094149;28;20024;-76
2021/08/11 00:09:14;;;;;;;18.38;5.55;;;;;;;;;;5078148;28;20028;-76
2021/08/11 00:11:40;;;;;;;7.07;5.22;;;;;;;;;;5094602;28;20120;-75
2021/08/11 00:14:05;;;;;;;14.50;5.57;;;;;;;;;;5072244;28;20036;-76
2021/08/11 00:16:31;;;;;;;7.88;5.45;;;;;;;;;;5074358;28;20040;-76
2021/08/11 00:18:57;;;;;;;45.08;6.03;;;;;;;;;;5074319;28;20033;-75
2021/08/11 00:21:23;;;;;;;8.65;5.68;;;;;;;;;;5092491;28;20042;-76
2021/08/11 00:23:48;;;;;;;9.50;5.97;;;;;;;;;;5093658;28;20103;-75
2021/08/11 00:26:14;;;;;;;6.38;5.60;;;;;;;;;;5068880;28;20036;-75
2021/08/11 00:28:39;;;;;;;6.00;5.40;;;;;;;;;;5080464;28;20040;-75
2021/08/11 00:31:05;;;;;;;8.00;5.45;;;;;;;;;;5092873;28;20028;-75
2021/08/11 00:33:31;;;;;;;23.20;5.72;;;;;;;;;;5093136;28;20039;-75
2021/08/11 00:35:56;;;;;;;6.65;5.55;;;;;;;;;;5092565;28;20066;-75
2021/08/11 00:38:22;;;;;;;13.95;4.97;;;;;;;;;;5077784;28;20036;-76
2021/08/11 00:40:49;;;;;;;5.72;4.95;;;;;;;;;;5092869;28;20060;-75
2021/08/11 00:43:15;;;;;;;7.75;4.60;;;;;;;;;;5076009;28;20078;-75
2021/08/11 00:45:45;;;;;;;8.35;5.18;;;;;;;;;;5078120;28;20032;-75
2021/08/11 00:48:12;;;;;;;6.03;4.90;;;;;;;;;;5092895;28;20035;-75
2021/08/11 00:50:38;;;;;;;9.85;4.93;;;;;;;;;;5092733;28;20036;-75
2021/08/11 00:53:06;;;;;;;6.15;4.70;;;;;;;;;;5093481;28;20032;-76
2021/08/11 00:55:35;;;;;;;11.82;5.57;;;;;;;;;;5098407;28;20033;-75
2021/08/11 00:58:03;;;;;;;6.50;4.55;;;;;;;;;;5097260;28;20393;-75
2021/08/11 01:00:33;;;;;;;6.47;4.95;;;;;;;;;;5094318;28;20032;-75
2021/08/11 01:03:00;;;;;;;5.95;4.75;;;;;;;;;;5092074;28;20032;-75
2021/08/11 01:05:27;;;;;;;7.57;4.97;;;;;;;;;;5092643;28;20032;-75
2021/08/11 01:07:53;;;;;;;5.95;4.95;;;;;;;;;;5094119;28;20028;-75
2021/08/11 01:10:20;;;;;;;7.40;5.05;;;;;;;;;;5091626;28;20491;-75
2021/08/11 01:12:46;;;;;;;9.80;5.78;;;;;;;;;;5092838;28;20024;-75
2021/08/11 01:15:12;;;;;;;13.43;5.68;;;;;;;;;;5093817;28;20039;-75
2021/08/11 01:17:38;;;;;;;10.55;5.18;;;;;;;;;;5074456;28;20027;-75
2021/08/11 01:20:05;;;;;;;6.07;4.90;;;;;;;;;;5092921;28;20039;-75
2021/08/11 01:22:46;;;;;;;9.95;5.38;;;;;;;;;;5093403;28;20085;-75
2021/08/11 01:25:19;;;;;;;9.82;5.57;;;;;;;;;;5090726;28;20035;-75
2021/08/11 01:28:24;;;;;;;11.45;5.00;;;;;;;;;;5092740;28;20603;-76
2021/08/11 01:31:11;;;;;;;9.93;5.43;;;;;;;;;;5092135;28;20530;-76
2021/08/11 01:33:59;;;;;;;44.03;5.85;;;;;;;;;;5091219;28;20047;-76
2021/08/11 01:36:34;;;;;;;6.80;5.47;;;;;;;;;;5092360;28;20047;-76
2021/08/11 01:39:09;;;;;;;12.25;5.97;;;;;;;;;;5073798;28;20131;-76
2021/08/11 01:41:37;;;;;;;9.63;5.90;;;;;;;;;;5072019;28;20123;-76
2021/08/11 01:44:06;;;;;;;16.83;6.40;;;;;;;;;;5072968;28;20041;-75
2021/08/11 01:46:36;;;;;;;11.20;5.82;;;;;;;;;;5073890;28;20020;-76
2021/08/11 01:49:07;;;;;;;9.98;6.60;;;;;;;;;;5092285;28;20081;-75
2021/08/11 01:51:36;;;;;;;12.75;7.20;;;;;;;;;;5075585;28;20400;-75
2021/08/11 01:54:02;;;;;;;9.70;7.18;;;;;;;;;;5085513;28;20066;-75
2021/08/11 01:56:30;;;;;;;25.00;6.28;;;;;;;;;;5071626;28;20050;-75
2021/08/11 01:58:56;;;;;;;14.52;5.97;;;;;;;;;;5072140;28;20524;-75
2021/08/11 02:01:24;;;;;;;15.32;6.22;;;;;;;;;;5063056;28;20031;-75
2021/08/11 02:03:50;;;;;;;8.88;5.57;;;;;;;;;;5091931;28;20350;-75
2021/08/11 02:06:17;;;;;;;13.38;5.78;;;;;;;;;;5074870;28;20093;-75
2021/08/11 02:08:50;;;;;;;7.28;5.00;;;;;;;;;;5090708;28;20082;-75
2021/08/11 02:11:17;;;;;;;11.30;5.90;;;;;;;;;;5091100;28;20035;-75
2021/08/11 02:13:43;;;;;;;11.02;5.97;;;;;;;;;;5091208;28;20490;-76
2021/08/11 02:16:11;;;;;;;8.07;5.80;;;;;;;;;;5070953;28;20490;-75
2021/08/11 02:18:37;;;;;;;18.27;6.38;;;;;;;;;;5055365;28;20371;-75
2021/08/11 02:21:03;;;;;;;8.43;6.18;;;;;;;;;;5087390;28;20066;-75
2021/08/11 02:23:29;;;;;;;10.60;5.97;;;;;;;;;;5067920;28;20070;-75
2021/08/11 02:26:17;;;;;;;13.82;5.22;;;;;;;;;;5075455;28;20073;-75
2021/08/11 02:28:51;;;;;;;14.30;6.38;;;;;;;;;;5090403;28;20051;-75
2021/08/11 02:31:32;;;;;;;11.48;6.97;;;;;;;;;;5091371;28;20031;-75
2021/08/11 02:34:06;;;;;;;10.48;7.60;;;;;;;;;;5092034;28;20396;-75
2021/08/11 02:36:44;;;;;;;10.20;7.30;;;;;;;;;;5089810;28;20055;-75
2021/08/11 02:39:13;;;;;;;12.73;8.90;;;;;;;;;;5092274;28;20051;-75
2021/08/11 02:41:53;;;;;;;12.10;8.02;;;;;;;;;;5091405;28;20031;-75
2021/08/11 02:44:40;;;;;;;19.02;8.70;;;;;;;;;;5090101;28;20024;-75
2021/08/11 02:47:08;;;;;;;18.33;8.75;;;;;;;;;;5091429;28;20420;-75
2021/08/11 02:49:35;;;;;;;20.20;8.63;;;;;;;;;;5090633;28;20489;-75
2021/08/11 02:52:05;;;;;;;11.25;8.00;;;;;;;;;;5075939;28;20056;-75
2021/08/11 02:54:32;;;;;;;16.13;8.80;;;;;;;;;;5070388;28;20029;-75
2021/08/11 02:57:02;;;;;;;12.23;8.52;;;;;;;;;;5070317;28;20029;-75
2021/08/11 02:59:28;;;;;;;14.30;8.13;;;;;;;;;;5071060;28;20402;-75
2021/08/11 03:01:54;;;;;;;13.15;9.02;;;;;;;;;;5074907;28;20036;-75
2021/08/11 03:04:20;;;;;;;13.60;9.30;;;;;;;;;;5089990;28;20140;-75
2021/08/11 03:06:46;;;;;;;14.65;8.65;;;;;;;;;;5089676;28;20533;-75
2021/08/11 03:09:12;;;;;;;14.13;8.80;;;;;;;;;;5090013;28;20044;-75
2021/08/11 03:11:38;;;;;;;13.00;9.45;;;;;;;;;;5073751;28;20024;-75
2021/08/11 03:14:06;;;;;;;12.80;8.50;;;;;;;;;;5089945;28;20040;-75
2021/08/11 03:16:37;;;;;;;28.75;9.30;;;;;;;;;;5075089;28;20039;-75
2021/08/11 03:19:04;;;;;;;11.40;8.95;;;;;;;;;;5090360;28;20032;-75
2021/08/11 03:21:30;;;;;;;18.00;9.57;;;;;;;;;;5074683;28;20055;-75
2021/08/11 03:23:56;;;;;;;14.07;9.35;;;;;;;;;;5074863;28;20025;-75
2021/08/11 03:26:23;;;;;;;18.42;10.60;;;;;;;;;;5089257;28;20036;-75
2021/08/11 03:28:49;;;;;;;14.48;9.55;;;;;;;;;;5090208;28;20085;-75
2021/08/11 03:31:14;;;;;;;23.77;9.70;;;;;;;;;;5074846;28;20040;-76
2021/08/11 03:33:42;;;;;;;15.02;9.90;;;;;;;;;;5088901;28;20052;-76
2021/08/11 03:36:09;;;;;;;21.88;10.70;;;;;;;;;;5074888;28;20038;-76
2021/08/11 03:38:37;;;;;;;16.60;10.35;;;;;;;;;;5091117;28;20444;-76
2021/08/11 03:41:04;;;;;;;19.48;10.63;;;;;;;;;;5089479;28;20046;-75
2021/08/11 03:43:31;;;;;;;17.77;11.18;;;;;;;;;;5090955;28;20396;-76
2021/08/11 03:45:57;;;;;;;16.30;11.30;;;;;;;;;;5091897;28;20024;-76
2021/08/11 03:48:24;;;;;;;16.88;11.73;;;;;;;;;;5069664;28;20060;-75
2021/08/11 03:50:50;;;;;;;15.52;11.85;;;;;;;;;;5057052;28;20540;-76
2021/08/11 03:53:15;;;;;;;14.05;10.32;;;;;;;;;;5075607;28;20482;-75
2021/08/11 03:55:41;;;;;;;18.85;12.43;;;;;;;;;;5093339;28;20477;-75
2021/08/11 03:58:07;;;;;;;15.55;11.43;;;;;;;;;;5094206;28;20115;-75
2021/08/11 04:00:34;;;;;;;16.95;11.65;;;;;;;;;;5077522;28;20036;-75
2021/08/11 04:03:00;;;;;;;24.00;12.23;;;;;;;;;;5094932;28;20040;-75
2021/08/11 04:05:25;;;;;;;16.83;11.63;;;;;;;;;;5096489;28;20044;-76
2021/08/11 04:07:51;;;;;;;15.05;11.63;;;;;;;;;;5094219;28;20495;-75
2021/08/11 04:10:16;;;;;;;16.33;11.10;;;;;;;;;;5093754;28;20035;-75
2021/08/11 04:12:41;;;;;;;14.15;10.40;;;;;;;;;;5095971;28;20062;-75
2021/08/11 04:15:08;;;;;;;17.92;11.20;;;;;;;;;;5094860;28;20054;-75
2021/08/11 04:17:33;;;;;;;13.30;10.77;;;;;;;;;;5094620;28;20040;-75
2021/08/11 04:19:58;;;;;;;14.07;10.38;;;;;;;;;;5094105;28;20504;-75
2021/08/11 04:22:24;;;;;;;17.45;10.32;;;;;;;;;;5095230;28;20043;-75
2021/08/11 04:24:50;;;;;;;15.48;10.50;;;;;;;;;;5092936;28;20028;-75
2021/08/11 04:27:16;;;;;;;16.20;10.68;;;;;;;;;;5095006;28;20051;-75
2021/08/11 04:29:41;;;;;;;17.13;10.25;;;;;;;;;;5094987;28;20043;-75
2021/08/11 04:32:07;;;;;;;19.05;10.57;;;;;;;;;;5095516;28;20043;-75
2021/08/11 04:34:32;;;;;;;11.02;9.15;;;;;;;;;;5095812;28;20410;-76
2021/08/11 04:36:58;;;;;;;13.02;9.20;;;;;;;;;;5095015;28;20098;-75
2021/08/11 04:39:23;;;;;;;12.48;8.70;;;;;;;;;;5094593;28;20482;-75
2021/08/11 04:41:49;;;;;;;12.63;8.80;;;;;;;;;;5095886;28;20043;-75
2021/08/11 04:44:14;;;;;;;11.65;8.52;;;;;;;;;;5094751;28;20089;-75
2021/08/11 04:46:41;;;;;;;12.27;7.78;;;;;;;;;;5093578;28;20032;-75
2021/08/11 04:49:07;;;;;;;10.70;8.25;;;;;;;;;;5096491;28;20043;-75
2021/08/11 04:51:32;;;;;;;10.45;7.85;;;;;;;;;;5094648;28;20127;-75
2021/08/11 04:53:58;;;;;;;12.02;8.30;;;;;;;;;;5087627;28;20040;-75
2021/08/11 04:56:23;;;;;;;11.30;8.73;;;;;;;;;;5090734;28;20106;-75
2021/08/11 04:58:49;;;;;;;14.95;9.60;;;;;;;;;;5095062;28;20048;-76
2021/08/11 05:01:14;;;;;;;14.52;10.13;;;;;;;;;;5094336;28;20502;-75
2021/08/11 05:03:40;;;;;;;15.23;9.40;;;;;;;;;;5094716;28;20455;-76
2021/08/11 05:06:07;;;;;;;14.32;9.55;;;;;;;;;;5091943;28;20055;-78
2021/08/11 05:08:33;;;;;;;13.00;9.10;;;;;;;;;;5095181;28;20032;-75
2021/08/11 05:10:58;;;;;;;13.48;8.93;;;;;;;;;;5095043;28;20047;-76
2021/08/11 05:13:25;;;;;;;12.27;8.38;;;;;;;;;;5091058;28;20505;-75
2021/08/11 05:15:50;;;;;;;13.68;9.45;;;;;;;;;;5094434;28;20039;-76
2021/08/11 05:18:15;;;;;;;11.45;9.18;;;;;;;;;;5095256;28;20390;-75
2021/08/11 05:20:41;;;;;;;14.73;9.10;;;;;;;;;;5092615;28;20052;-75
2021/08/11 05:23:06;;;;;;;15.02;9.52;;;;;;;;;;5095058;28;20035;-76
2021/08/11 05:25:31;;;;;;;12.07;8.98;;;;;;;;;;5081852;28;20032;-76
2021/08/11 05:27:57;;;;;;;13.75;9.20;;;;;;;;;;5074679;28;20088;-75
2021/08/11 05:30:22;;;;;;;12.18;8.77;;;;;;;;;;5093380;28;20128;-76
2021/08/11 05:32:47;;;;;;;12.50;8.60;;;;;;;;;;5095352;28;20044;-76
2021/08/11 05:35:13;;;;;;;14.93;9.98;;;;;;;;;;5093068;28;20382;-76
2021/08/11 05:37:39;;;;;;;13.30;10.35;;;;;;;;;;5094705;28;20035;-76
2021/08/11 05:40:05;;;;;;;12.60;9.73;;;;;;;;;;5094433;28;20126;-76
2021/08/11 05:42:30;;;;;;;13.68;9.63;;;;;;;;;;5091281;28;20202;-76
2021/08/11 05:44:55;;;;;;;14.55;9.68;;;;;;;;;;5095008;28;20048;-76
2021/08/11 05:47:21;;;;;;;13.25;9.50;;;;;;;;;;5092777;28;20046;-76
2021/08/11 05:49:46;;;;;;;11.95;8.77;;;;;;;;;;5090470;28;20435;-76
2021/08/11 05:52:12;;;;;;;11.40;8.27;;;;;;;;;;5093137;28;20458;-76
2021/08/11 05:54:38;;;;;;;14.25;9.45;;;;;;;;;;5091465;28;20470;-77
2021/08/11 05:57:04;;;;;;;10.98;7.80;;;;;;;;;;5092154;28;20519;-77
2021/08/11 05:59:30;;;;;;;12.70;8.48;;;;;;;;;;5091741;28;20036;-76
2021/08/11 06:01:55;;;;;;;11.77;9.20;;;;;;;;;;5092449;28;20127;-77
2021/08/11 06:04:22;;;;;;;14.23;8.70;;;;;;;;;;5092294;28;20051;-76
2021/08/11 06:06:49;;;;;;;13.65;8.93;;;;;;;;;;5092582;28;20086;-77
2021/08/11 06:09:14;;;;;;;12.90;9.00;;;;;;;;;;5091694;28;20115;-76
2021/08/11 06:11:40;;;;;;;10.25;7.88;;;;;;;;;;5092612;28;20122;-77
2021/08/11 06:14:05;;;;;;;12.38;8.73;;;;;;;;;;5093152;28;20036;-76
2021/08/11 06:16:31;;;;;;;10.88;8.43;;;;;;;;;;5091670;28;20046;-77
2021/08/11 06:18:57;;;;;;;13.25;9.10;;;;;;;;;;5092452;28;20103;-76
2021/08/11 06:21:24;;;;;;;10.68;7.68;;;;;;;;;;5092186;28;20088;-76
2021/08/11 06:23:51;;;;;;;11.23;8.20;;;;;;;;;;5091764;28;20039;-78
2021/08/11 06:26:17;;;;;;;13.20;8.55;;;;;;;;;;5094648;28;20028;-79
2021/08/11 06:28:43;;;;;;;12.30;8.52;;;;;;;;;;5097566;28;20059;-82
2021/08/11 06:31:08;;;;;;;11.30;8.13;;;;;;;;;;5079462;28;20031;-83
2021/08/11 06:33:33;;;;;;;12.60;9.25;;;;;;;;;;5081412;28;20079;-81
2021/08/11 06:35:59;;;;;;;11.40;7.97;;;;;;;;;;5104483;28;20036;-80
2021/08/11 06:38:24;;;;;;;10.18;7.95;;;;;;;;;;5080240;28;20039;-81
2021/08/11 06:40:50;;;;;;;11.80;8.25;;;;;;;;;;5095449;28;20036;-80
2021/08/11 06:43:15;;;;;;;13.93;8.38;;;;;;;;;;5097252;28;20406;-80
2021/08/11 06:45:41;;;;;;;10.48;7.60;;;;;;;;;;5078289;28;20070;-80
2021/08/11 06:48:06;;;;;;;14.07;8.45;;;;;;;;;;5077596;28;20396;-80
2021/08/11 06:50:32;;;;;;;11.25;8.30;;;;;;;;;;5078573;28;20036;-80
2021/08/11 06:52:57;;;;;;;10.60;8.02;;;;;;;;;;5094746;28;20028;-80
2021/08/11 06:55:23;;;;;;;12.30;8.05;;;;;;;;;;5074373;28;20452;-81
2021/08/11 06:57:50;;;;;;;10.05;8.25;;;;;;;;;;5076174;28;20056;-81
2021/08/11 07:00:16;;;;;;;11.25;8.02;;;;;;;;;;5057749;28;20398;-80
2021/08/11 07:02:41;;;;;;;11.40;7.95;;;;;;;;;;5094493;28;20032;-79
2021/08/11 07:05:08;;;;;;;9.55;7.15;;;;;;;;;;5079110;28;20036;-80
2021/08/11 07:07:33;;;;;;;11.00;7.43;;;;;;;;;;5077797;28;20094;-81
2021/08/11 07:09:59;;;;;;;9.23;7.43;;;;;;;;;;5079013;28;20036;-82
2021/08/11 07:12:25;;;;;;;12.35;8.45;;;;;;;;;;5078939;28;20032;-82
2021/08/11 07:14:52;;;;;;;12.68;9.27;;;;;;;;;;5093319;28;20047;-82
2021/08/11 07:17:17;;;;;;;13.48;9.85;;;;;;;;;;5097118;28;20190;-82
2021/08/11 07:19:42;;;;;;;10.55;8.60;;;;;;;;;;5081100;28;20063;-81
2021/08/11 07:22:09;;;;;;;12.23;8.70;;;;;;;;;;5077583;28;20039;-82
2021/08/11 07:24:35;;;;;;;14.85;9.57;;;;;;;;;;5078016;28;20036;-83
2021/08/11 07:27:01;;;;;;;11.48;8.15;;;;;;;;;;5066641;28;20159;-82
2021/08/11 07:29:27;;;;;;;11.80;8.27;;;;;;;;;;5069462;28;20063;-83
2021/08/11 07:31:52;;;;;;;12.27;8.80;;;;;;;;;;5086472;28;20028;-83
2021/08/11 07:34:19;;;;;;;10.68;8.95;;;;;;;;;;5087396;28;20059;-83
2021/08/11 07:36:44;;;;;;;16.15;8.52;;;;;;;;;;5081537;28;20493;-84
2021/08/11 07:39:11;;;;;;;10.35;7.57;;;;;;;;;;5102418;28;20029;-84
2021/08/11 07:41:36;;;;;;;11.63;8.48;;;;;;;;;;5087359;28;20051;-84
2021/08/11 07:44:02;;;;;;;9.70;8.18;;;;;;;;;;5090565;28;20425;-84
2021/08/11 07:46:27;;;;;;;13.20;9.63;;;;;;;;;;5086742;28;20047;-84
2021/08/11 07:48:53;;;;;;;12.10;9.43;;;;;;;;;;5105133;28;20123;-84
2021/08/11 07:51:19;;;;;;;19.35;9.65;;;;;;;;;;5086537;28;20118;-84
2021/08/11 07:53:44;;;;;;;12.32;9.55;;;;;;;;;;5075319;28;20071;-84
2021/08/11 07:56:10;;;;;;;11.70;8.57;;;;;;;;;;5066553;28;20036;-84
2021/08/11 07:58:36;;;;;;;9.90;8.23;;;;;;;;;;5072987;28;20043;-83
2021/08/11 08:01:01;;;;;;;11.23;8.18;;;;;;;;;;5086216;28;20042;-84
2021/08/11 08:03:27;;;;;;;8.63;7.10;;;;;;;;;;5085189;28;20027;-83
2021/08/11 08:05:53;;;;;;;9.10;7.40;;;;;;;;;;5082910;28;20038;-82
2021/08/11 08:08:19;;;;;;;9.85;7.38;;;;;;;;;;5069019;28;20028;-82
2021/08/11 08:10:45;;;;;;;8.40;6.88;;;;;;;;;;5104271;28;20043;-82
2021/08/11 08:13:10;;;;;;;9.65;6.88;;;;;;;;;;5107318;28;20028;-81
2021/08/11 08:15:36;;;;;;;9.95;7.32;;;;;;;;;;5087542;28;20071;-80
2021/08/11 08:18:02;;;;;;;8.82;6.60;;;;;;;;;;5090283;28;20035;-82
2021/08/11 08:20:30;;;;;;;7.93;6.55;;;;;;;;;;5087459;28;20055;-81
2021/08/11 08:22:56;;;;;;;8.05;6.18;;;;;;;;;;5090843;28;20501;-82
2021/08/11 08:25:22;;;;;;;9.75;6.45;;;;;;;;;;5117987;28;20059;-80
2021/08/11 08:27:50;;;;;;;7.40;5.72;;;;;;;;;;5101972;28;20035;-80
2021/08/11 08:30:17;;;;;;;8.43;5.68;;;;;;;;;;5101642;28;20027;-79
2021/08/11 08:32:43;;;;;;;8.65;6.03;;;;;;;;;;5096431;28;20044;-80
2021/08/11 08:35:08;;;;;;;12.43;6.22;;;;;;;;;;5096101;28;20036;-78
2021/08/11 08:37:42;;;;;;;11.25;6.53;;;;;;;;;;5094068;28;20051;-77
2021/08/11 08:40:13;;;;;;;7.07;5.68;;;;;;;;;;5074519;27;20067;-78
2021/08/11 08:42:43;;;;;;;8.90;6.43;;;;;;;;;;5091136;28;20444;-78
2021/08/11 08:45:10;;;;;;;7.82;6.05;;;;;;;;;;5095352;28;20114;-77
2021/08/11 08:47:37;;;;;;;9.20;6.18;;;;;;;;;;5090840;28;20028;-78
2021/08/11 08:50:09;;;;;;;7.70;6.85;;;;;;;;;;5080393;28;20033;-83
2021/08/11 08:52:37;;;;;;;6.93;6.20;;;;;;;;;;5064445;28;20040;-81
2021/08/11 08:55:03;;;;;;;9.10;6.43;;;;;;;;;;5109178;28;20039;-81
2021/08/11 08:57:29;;;;;;;9.73;5.80;;;;;;;;;;5105993;28;20032;-80
2021/08/11 08:59:56;;;;;;;10.02;6.65;;;;;;;;;;5105051;28;20040;-80
2021/08/11 09:02:21;;;;;;;7.70;6.40;;;;;;;;;;5077985;28;20532;-78
2021/08/11 09:04:46;;;;;;;11.32;7.35;;;;;;;;;;5097407;28;20040;-78
2021/08/11 09:07:20;;;;;;;8.50;6.53;;;;;;;;;;5099223;28;20039;-79
2021/08/11 09:09:45;;;;;;;9.13;7.43;;;;;;;;;;5091978;28;20114;-76
2021/08/11 09:12:21;;;;;;;9.32;6.47;;;;;;;;;;5093824;28;20064;-76
2021/08/11 09:14:48;;;;;;;11.20;7.10;;;;;;;;;;5093538;28;20089;-77
2021/08/11 09:17:38;;;;;;;8.70;6.95;;;;;;;;;;5099037;28;20122;-78
2021/08/11 09:20:05;;;;;;;10.85;6.32;;;;;;;;;;5083733;28;20481;-80
2021/08/11 09:22:51;;;;;;;7.47;6.03;;;;;;;;;;5103797;28;20040;-80
2021/08/11 09:25:18;;;;;;;9.70;6.95;;;;;;;;;;5080526;28;20039;-78
2021/08/11 09:27:45;;;;;;;7.85;6.55;;;;;;;;;;5099515;28;20032;-77
2021/08/11 09:30:12;;;;;;;8.80;6.07;;;;;;;;;;5077724;28;20077;-77
2021/08/11 09:33:01;;;;;;;8.57;5.82;;;;;;;;;;5094751;28;20082;-78
2021/08/11 09:35:28;;;;;;;7.85;6.07;;;;;;;;;;5097511;28;20563;-78
2021/08/11 09:37:59;;;;;;;10.02;5.85;;;;;;;;;;5090659;28;20051;-78
2021/08/11 09:40:27;;;;;;;11.70;7.68;;;;;;;;;;5075001;28;20390;-78
2021/08/11 09:43:00;;;;;;;10.27;6.13;;;;;;;;;;5076425;28;20028;-79
2021/08/11 09:45:26;;;;;;;6.85;5.03;;;;;;;;;;5083230;28;20036;-75
2021/08/11 09:48:01;;;;;;;8.98;6.03;;;;;;;;;;5094228;28;20721;-76
2021/08/11 09:50:34;;;;;;;10.73;5.50;;;;;;;;;;5093650;28;20043;-76
2021/08/11 09:53:00;;;;;;;9.13;6.13;;;;;;;;;;5091517;28;20448;-76
2021/08/11 09:55:26;;;;;;;6.60;4.68;;;;;;;;;;5074477;28;20060;-77
2021/08/11 09:57:51;;;;;;;8.18;5.18;;;;;;;;;;5071867;28;20043;-76
2021/08/11 10:00:18;;;;;;;7.50;4.93;;;;;;;;;;5062411;28;20025;-76
2021/08/11 10:02:45;;;;;;;9.35;5.05;;;;;;;;;;5055494;28;20032;-76
2021/08/11 10:05:34;;;;;;;6.82;4.72;;;;;;;;;;5071503;28;20033;-76
2021/08/11 10:08:00;;;;;;;7.15;5.43;;;;;;;;;;5088161;28;20477;-77
2021/08/11 10:10:26;;;;;;;6.45;5.05;;;;;;;;;;5091947;28;20031;-77
2021/08/11 10:12:52;;;;;;;8.05;5.15;;;;;;;;;;5074857;28;20189;-79
2021/08/11 10:15:19;;;;;;;9.18;4.93;;;;;;;;;;5093181;28;20404;-77
2021/08/11 10:17:45;;;;;;;7.30;4.65;;;;;;;;;;5093625;28;20508;-77
2021/08/11 10:20:12;;;;;;;6.75;4.47;;;;;;;;;;5073888;28;20032;-77
2021/08/11 10:22:39;;;;;;;9.43;4.95;;;;;;;;;;5091498;28;20117;-77
2021/08/11 10:25:05;;;;;;;9.75;5.13;;;;;;;;;;5075508;28;20035;-77
2021/08/11 10:27:31;;;;;;;6.70;4.80;;;;;;;;;;5090422;28;20035;-77
2021/08/11 10:29:57;;;;;;;6.15;4.68;;;;;;;;;;5091108;28;20032;-77
2021/08/11 10:32:24;;;;;;;7.22;5.18;;;;;;;;;;5075143;28;20137;-77
2021/08/11 10:34:54;;;;;;;9.43;4.72;;;;;;;;;;5075665;28;20090;-77
2021/08/11 10:37:24;;;;;;;7.75;5.18;;;;;;;;;;5092134;28;20086;-77
2021/08/11 10:39:50;;;;;;;6.22;4.95;;;;;;;;;;5091956;28;20112;-77
2021/08/11 10:42:15;;;;;;;8.40;4.72;;;;;;;;;;5091475;28;20085;-77
2021/08/11 10:44:42;;;;;;;6.28;5.05;;;;;;;;;;5091665;28;20028;-77
2021/08/11 10:47:10;;;;;;;5.90;4.40;;;;;;;;;;5091615;28;20059;-77
2021/08/11 10:49:55;;;;;;;5.55;4.93;;;;;;;;;;5090384;28;20028;-77
2021/08/11 10:52:21;;;;;;;8.10;5.03;;;;;;;;;;5093490;28;20516;-77
2021/08/11 10:54:52;;;;;;;9.05;4.55;;;;;;;;;;5070492;28;20025;-77
2021/08/11 10:57:36;;;;;;;7.43;5.07;;;;;;;;;;5081125;28;20066;-77
2021/08/11 11:00:05;;;;;;;7.82;5.05;;;;;;;;;;5092404;28;20035;-77
2021/08/11 11:02:40;;;;;;;8.57;5.30;;;;;;;;;;5091960;28;20059;-77
2021/08/11 11:05:07;;;;;;;;;;;;;;;;;;5074575;28;20039;-77
2021/08/11 11:07:32;;;;;;;7.80;4.75;;;;;;;;;;5075058;28;20007;-77
2021/08/11 11:10:27;;;;;;;8.20;4.45;;;;;;;;;;5073329;28;20132;-77
2021/08/11 11:12:52;;;;;;;7.57;4.93;;;;;;;;;;5055032;28;20033;-77
2021/08/11 11:15:39;;;;;;;5.88;4.82;;;;;;;;;;5071679;28;20115;-77
2021/08/11 11:18:18;;;;;;;4.95;4.30;;;;;;;;;;5075736;28;20101;-77
2021/08/11 11:20:44;;;;;;;7.65;4.50;;;;;;;;;;5091436;28;20043;-77
2021/08/11 11:23:10;;;;;;;5.80;4.80;;;;;;;;;;5091659;28;20031;-77
2021/08/11 11:25:59;;;;;;;5.80;4.25;;;;;;;;;;5084423;28;20043;-77
2021/08/11 11:28:56;;;;;;;5.18;4.68;;;;;;;;;;5056074;28;20037;-77
2021/08/11 11:31:35;;;;;;;11.48;4.78;;;;;;;;;;5055577;28;20063;-77
2021/08/11 11:34:29;;;;;;;7.85;4.95;;;;;;;;;;5092110;28;20517;-77
2021/08/11 11:36:54;;;;;;;6.68;4.57;;;;;;;;;;5077247;28;20097;-78
2021/08/11 11:39:21;;;;;;;8.68;4.78;;;;;;;;;;5088060;28;20040;-77
2021/08/11 11:42:05;;;;;;;5.97;4.50;;;;;;;;;;5075220;28;20074;-78
2021/08/11 11:44:47;;;;;;;6.30;4.47;;;;;;;;;;5073463;28;20032;-77
2021/08/11 11:47:17;;;;;;;6.25;3.97;;;;;;;;;;5083039;28;20040;-77
2021/08/11 11:49:43;;;;;;;6.35;3.80;;;;;;;;;;5093842;28;20465;-78
2021/08/11 11:52:14;;;;;;;7.35;4.30;;;;;;;;;;5076347;28;20063;-78
2021/08/11 11:54:44;;;;;;;6.07;4.07;;;;;;;;;;5084463;28;20046;-77
2021/08/11 11:57:12;;;;;;;5.03;4.18;;;;;;;;;;5057175;28;20043;-78
2021/08/11 11:59:42;;;;;;;8.90;4.32;;;;;;;;;;5072668;28;20063;-77
2021/08/11 12:02:35;;;;;;;5.90;3.90;;;;;;;;;;5088917;28;20086;-77
2021/08/11 12:05:03;;;;;;;6.03;4.28;;;;;;;;;;5091384;28;20048;-77
2021/08/11 12:07:33;;;;;;;8.23;4.07;;;;;;;;;;5074290;28;20071;-77
2021/08/11 12:10:00;;;;;;;4.32;3.60;;;;;;;;;;5075922;28;20035;-77
2021/08/11 12:12:26;;;;;;;5.95;4.25;;;;;;;;;;5094433;28;20526;-77
2021/08/11 12:15:11;;;;;;;4.68;3.88;;;;;;;;;;5094247;28;20056;-78
2021/08/11 12:17:36;;;;;;;5.65;4.03;;;;;;;;;;5096199;28;20470;-77
2021/08/11 12:20:02;;;;;;;7.00;4.25;;;;;;;;;;5095961;28;20092;-78
2021/08/11 12:22:40;;;;;;;8.25;4.70;;;;;;;;;;5097805;28;20052;-78
2021/08/11 12:25:20;;;;;;;5.80;3.83;;;;;;;;;;5082087;28;20028;-78
2021/08/11 12:28:06;;;;;;;5.53;3.38;;;;;;;;;;5097176;28;20051;-78
2021/08/11 12:30:32;;;;;;;7.75;3.65;;;;;;;;;;5099905;28;20032;-80
2021/08/11 12:32:58;;;;;;;4.47;3.10;;;;;;;;;;5101219;28;20497;-81
2021/08/11 12:35:23;;;;;;;5.35;3.22;;;;;;;;;;5099644;28;20668;-79
2021/08/11 12:37:49;;;;;;;6.60;4.15;;;;;;;;;;5099585;28;20060;-78
2021/08/11 12:40:29;;;;;;;3.88;3.30;;;;;;;;;;5095118;28;20046;-77
2021/08/11 12:42:56;;;;;;;12.63;4.07;;;;;;;;;;5092933;28;20467;-77
2021/08/11 12:45:22;;;;;;;5.35;3.38;;;;;;;;;;5090254;28;20036;-77
2021/08/11 12:47:47;;;;;;;4.57;3.33;;;;;;;;;;5074102;28;20058;-77
2021/08/11 12:50:22;;;;;;;4.13;3.10;;;;;;;;;;5074666;28;20059;-77
2021/08/11 12:52:57;;;;;;;7.50;3.25;;;;;;;;;;5095326;28;20550;-77
2021/08/11 12:55:36;;;;;;;4.85;3.20;;;;;;;;;;5095312;28;20487;-77
2021/08/11 12:58:02;;;;;;;7.38;3.15;;;;;;;;;;5099354;28;20035;-77
2021/08/11 13:00:41;;;;;;;7.00;3.17;;;;;;;;;;5096121;28;20038;-79
2021/08/11 13:03:09;;;;;;;4.72;2.83;;;;;;;;;;5096316;28;20059;-77
2021/08/11 13:05:48;;;;;;;4.65;3.25;;;;;;;;;;5093513;28;20032;-76
2021/08/11 13:08:14;;;;;;;8.32;2.92;;;;;;;;;;5094960;28;20035;-76
2021/08/11 13:10:53;;;;;;;3.95;2.78;;;;;;;;;;5076945;28;20043;-81
2021/08/11 13:13:23;;;;;;;2.70;2.50;;;;;;;;;;5096428;28;20032;-76
2021/08/11 13:15:49;;;;;;;6.60;3.50;;;;;;;;;;5076847;28;20044;-76
2021/08/11 13:18:23;;;;;;;5.65;3.08;;;;;;;;;;5092428;28;20043;-75
2021/08/11 13:20:49;;;;;;;;;;;;;;;;;;5095122;28;20036;-78
2021/08/11 13:23:14;;;;;;;6.82;2.70;;;;;;;;;;5095738;28;19918;-77
2021/08/11 13:25:44;;;;;;;4.18;2.90;;;;;;;;;;5093138;28;20043;-77
2021/08/11 13:28:10;;;;;;;4.78;2.60;;;;;;;;;;5095021;28;20393;-78
2021/08/11 13:30:35;;;;;;;3.90;2.85;;;;;;;;;;5077451;28;20047;-77
2021/08/11 13:33:01;;;;;;;3.92;2.83;;;;;;;;;;5093245;28;20039;-79
2021/08/11 13:35:31;;;;;;;13.10;3.90;;;;;;;;;;5095601;28;20070;-77
2021/08/11 13:37:57;;;;;;;10.68;3.75;;;;;;;;;;5095887;28;20043;-77
2021/08/11 13:40:23;;;;;;;4.38;3.03;;;;;;;;;;5097993;28;20036;-80
2021/08/11 13:42:49;;;;;;;6.20;3.30;;;;;;;;;;5102145;28;20027;-79
2021/08/11 13:45:14;;;;;;;5.80;3.22;;;;;;;;;;5084143;28;20051;-79
2021/08/11 13:47:41;;;;;;;4.35;3.10;;;;;;;;;;5096767;28;20032;-79
2021/08/11 13:50:08;;;;;;;6.13;2.95;;;;;;;;;;5096754;28;20396;-79
2021/08/11 13:52:33;;;;;;;6.95;3.72;;;;;;;;;;5080508;28;20596;-79
2021/08/11 13:54:58;;;;;;;4.55;3.10;;;;;;;;;;5079244;28;20102;-78
2021/08/11 13:57:24;;;;;;;3.47;2.80;;;;;;;;;;5098913;28;20539;-80
2021/08/11 13:59:49;;;;;;;3.95;3.15;;;;;;;;;;5080005;28;20016;-81
2021/08/11 14:02:15;;;;;;;4.75;3.30;;;;;;;;;;5100796;28;20035;-79
2021/08/11 14:04:40;;;;;;;6.47;3.63;;;;;;;;;;5102900;28;20028;-79
2021/08/11 14:07:05;;;;;;;11.95;3.60;;;;;;;;;;5103015;28;20136;-78
2021/08/11 14:09:32;;;;;;;4.53;2.78;;;;;;;;;;5099864;28;20059;-78
2021/08/11 14:11:59;;;;;;;4.00;2.50;;;;;;;;;;5104155;28;20131;-78
2021/08/11 14:14:25;;;;;;;3.15;2.50;;;;;;;;;;5086182;28;20044;-78
2021/08/11 14:16:50;;;;;;;3.58;2.83;;;;;;;;;;5083982;28;20036;-78
2021/08/11 14:19:17;;;;;;;3.20;2.53;;;;;;;;;;5101325;28;20034;-78
2021/08/11 14:21:43;;;;;;;5.05;2.85;;;;;;;;;;5098266;28;20043;-78
2021/08/11 14:24:09;;;;;;;3.97;2.80;;;;;;;;;;5102460;28;20083;-78
2021/08/11 14:26:34;;;;;;;5.30;2.70;;;;;;;;;;5085152;28;20043;-79
2021/08/11 14:29:00;;;;;;;4.53;2.78;;;;;;;;;;5101109;28;20032;-78
2021/08/11 14:31:27;;;;;;;5.25;3.10;;;;;;;;;;5076196;28;20036;-78
2021/08/11 14:33:53;;;;;;;3.72;2.67;;;;;;;;;;5101602;28;20043;-78
2021/08/11 14:36:18;;;;;;;5.55;2.80;;;;;;;;;;5101801;28;20080;-78
2021/08/11 14:38:46;;;;;;;4.38;2.90;;;;;;;;;;5099263;28;20574;-78
2021/08/11 14:41:12;;;;;;;5.03;2.75;;;;;;;;;;5100194;28;20038;-78
2021/08/11 14:43:37;;;;;;;3.97;2.63;;;;;;;;;;5084199;28;20161;-78